Airfield :
LOGIN :

Register | Disclaimer

   EN    FR    IT 

 










Legend :    VFR   Marginal VFR   IFR   Intensive IFR   Very Intensive IFR
Visi :
Ceiling :
>= 8 km
>= 3000ft
5 to 8 km
1000 to 3000 ft
1500m to 5 km
500 to 1000 ft
800 to 1500m
200 to 500 ft
< 800m
< 200 ft
Symbols :   Thunderstorms  Fog  Heavy snow  Heavy precipitations  Wind > 20 kt
SIGMETs :     Misc.  Thunderstorms  Icing  Turbulence  Mountain Waves  Volcanic Ashes






- Airport Elevation : 135 ft
- IATA code : EDI


EGPH - Edinburgh

CURRENT METAR :
  • 050120Z 25011KT 9999 -RA BKN011 15/14 Q0999

EXPIRED METARs :
  • 050050Z 25010KT 6000 -RA OVC011 15/14 Q0999
  • 050020Z 26008KT 8000 -RA BKN011 15/14 Q0999
  • 042350Z 26013KT 4800 -RADZ SCT007 BKN019 15/14 Q0998 RESHRA
  • 042320Z 27014G25KT 2500 -RA BKN009 17/15 Q0998
  • 042250Z 22016KT 9999 OVC018 18/16 Q0997

TAF AMD TAF EGPH
Valid from the 05 at 00:00 until the 06 at 00:00 UTC


050045Z 0500/0524 24009KT 9999 FEW012 SCT018
TEMPO 0500/0524 6000 -RADZ RA BKN012
PROB30
TEMPO 0500/0505 4000 RADZ
PROB30
TEMPO 0512/0522 4000 RADZ +RA BKN008
ATIS : +44 131 339 2823



MET'MAP, your aeronautical weather chart ! - Copyright ORBIFLY December 2007 - Disclaimer

ORBIFLY MET'MAP TEAM :

Programming & Development : Alexandra Zaïnal
Concept & original design : Baudouin d'Aumeries
Assistance for programming : Marc-Olivier Méhu
Technical & hardware support : Manuel Goepfert

Contact : metmap@orbifly.com




SOURCES & CREDITS :

   NOAA